createdAt,value
2018-10-03T00:00:12.028Z,927.33
2018-10-03T00:00:23.999Z,927.34
2018-10-03T00:00:36.069Z,927.33
2018-10-03T00:00:48.123Z,927.3
2018-10-03T00:01:00.581Z,927.33
2018-10-03T00:01:13.180Z,927.33
2018-10-03T00:01:25.813Z,927.33
2018-10-03T00:01:38.310Z,927.31
2018-10-03T00:01:51.301Z,927.29
2018-10-03T00:02:02.928Z,927.31
2018-10-03T00:02:15.479Z,927.27
2018-10-03T00:02:28.506Z,927.26
2018-10-03T00:02:40.110Z,927.28
2018-10-03T00:02:52.176Z,927.31
2018-10-03T00:03:04.719Z,927.25
2018-10-03T00:03:17.257Z,927.24
2018-10-03T00:03:30.238Z,927.22
2018-10-03T00:03:42.749Z,927.24
2018-10-03T00:03:55.290Z,927.25
2018-10-03T00:04:07.438Z,927.23
2018-10-03T00:04:20.434Z,927.23
2018-10-03T00:04:32.990Z,927.24
2018-10-03T00:04:45.553Z,927.19
2018-10-03T00:04:58.193Z,927.22
2018-10-03T00:05:11.254Z,927.22
2018-10-03T00:05:24.257Z,927.22
2018-10-03T00:05:37.268Z,927.23
2018-10-03T00:05:49.353Z,927.21
2018-10-03T00:06:01.941Z,927.17
2018-10-03T00:06:15.058Z,927.21
2018-10-03T00:06:27.598Z,927.2
2018-10-03T00:06:40.611Z,927.16
2018-10-03T00:06:53.127Z,927.15
2018-10-03T00:07:05.188Z,927.17
2018-10-03T00:07:18.135Z,927.15
2018-10-03T00:07:30.738Z,927.15
2018-10-03T00:07:43.936Z,927.16
2018-10-03T00:07:56.548Z,927.11
2018-10-03T00:08:09.083Z,927.12
2018-10-03T00:08:21.583Z,927.14
2018-10-03T00:08:34.626Z,927.09
2018-10-03T00:08:47.171Z,927.11
2018-10-03T00:09:00.145Z,927.16
2018-10-03T00:09:12.648Z,927.12
2018-10-03T00:09:25.672Z,927.13
2018-10-03T00:09:38.199Z,927.14
2018-10-03T00:09:50.747Z,927.12
2018-10-03T00:10:03.218Z,927.11
2018-10-03T00:10:15.806Z,927.13
2018-10-03T00:10:28.308Z,927.13
2018-10-03T00:10:40.824Z,927.11
2018-10-03T00:10:52.908Z,927.11
2018-10-03T00:11:05.416Z,927.12
2018-10-03T00:11:17.533Z,927.11
2018-10-03T00:11:30.144Z,927.1
2018-10-03T00:11:42.736Z,927.1
2018-10-03T00:11:55.771Z,927.11
2018-10-03T00:12:08.265Z,927.08
2018-10-03T00:12:21.221Z,927.09
2018-10-03T00:12:33.334Z,927.09
2018-10-03T00:12:45.000Z,927.13
2018-10-03T00:12:57.038Z,927.13
2018-10-03T00:13:10.076Z,927.1
2018-10-03T00:13:22.597Z,927.17
2018-10-03T00:13:35.558Z,927.18
2018-10-03T00:13:48.141Z,927.17
2018-10-03T00:14:00.167Z,927.19
2018-10-03T00:14:11.759Z,927.18
2018-10-03T00:14:24.278Z,927.13
2018-10-03T00:14:36.776Z,927.18
2018-10-03T00:14:49.877Z,927.17
2018-10-03T00:15:02.445Z,927.21
2018-10-03T00:15:15.427Z,927.19
2018-10-03T00:15:27.553Z,927.17
2018-10-03T00:15:39.628Z,927.24
2018-10-03T00:15:51.686Z,927.23
2018-10-03T00:16:04.717Z,927.25
2018-10-03T00:16:16.752Z,927.2
2018-10-03T00:16:29.814Z,927.24
2018-10-03T00:16:42.748Z,927.27
2018-10-03T00:16:55.799Z,927.23
2018-10-03T00:17:08.363Z,927.26
2018-10-03T00:17:20.974Z,927.21
2018-10-03T00:17:33.470Z,927.29
2018-10-03T00:17:45.987Z,927.28
2018-10-03T00:17:58.090Z,927.24
2018-10-03T00:18:11.115Z,927.26
2018-10-03T00:18:22.774Z,927.3
2018-10-03T00:18:35.301Z,927.25
2018-10-03T00:18:47.412Z,927.33
2018-10-03T00:18:59.940Z,927.25
2018-10-03T00:19:12.029Z,927.27
2018-10-03T00:19:25.009Z,927.31
2018-10-03T00:19:37.132Z,927.32
2018-10-03T00:19:49.609Z,927.32
2018-10-03T00:20:02.590Z,927.33
2018-10-03T00:20:15.608Z,927.31
2018-10-03T00:20:28.123Z,927.29
2018-10-03T00:20:40.639Z,927.29
2018-10-03T00:20:53.181Z,927.29
2018-10-03T00:21:05.689Z,927.35
2018-10-03T00:21:18.244Z,927.33
2018-10-03T00:21:30.359Z,927.35
2018-10-03T00:21:42.885Z,927.35
2018-10-03T00:21:55.452Z,927.35
2018-10-03T00:22:07.478Z,927.35
2018-10-03T00:22:20.508Z,927.32
2018-10-03T00:22:33.572Z,927.32
2018-10-03T00:22:45.678Z,927.34
2018-10-03T00:22:59.713Z,927.34
2018-10-03T00:23:12.340Z,927.34
2018-10-03T00:23:24.121Z,927.32
2018-10-03T00:23:37.478Z,927.34
2018-10-03T00:23:50.462Z,927.33
2018-10-03T00:24:02.913Z,927.33
2018-10-03T00:24:15.926Z,927.33
2018-10-03T00:24:29.033Z,927.34
2018-10-03T00:24:41.075Z,927.35
2018-10-03T00:24:54.093Z,927.31
2018-10-03T00:25:06.591Z,927.32
2018-10-03T00:25:19.534Z,927.31
2018-10-03T00:25:31.617Z,927.29
2018-10-03T00:25:43.783Z,927.3
2018-10-03T00:25:56.841Z,927.32
2018-10-03T00:26:09.337Z,927.29
2018-10-03T00:26:21.379Z,927.29
2018-10-03T00:26:34.402Z,927.28
2018-10-03T00:26:46.931Z,927.27
2018-10-03T00:26:59.939Z,927.29
2018-10-03T00:27:12.970Z,927.27
2018-10-03T00:27:25.945Z,927.27
2018-10-03T00:27:38.007Z,927.25
2018-10-03T00:27:50.525Z,927.29
2018-10-03T00:28:03.074Z,927.27
2018-10-03T00:28:15.174Z,927.28
2018-10-03T00:28:27.725Z,927.29
2018-10-03T00:28:40.761Z,927.29
2018-10-03T00:28:53.735Z,927.27
2018-10-03T00:29:06.760Z,927.27
2018-10-03T00:29:19.779Z,927.24
2018-10-03T00:29:32.762Z,927.24
2018-10-03T00:29:45.307Z,927.26
2018-10-03T00:29:57.813Z,927.25
2018-10-03T00:30:09.887Z,927.28
2018-10-03T00:30:22.472Z,927.26
2018-10-03T00:30:34.632Z,927.25
2018-10-03T00:30:47.650Z,927.24
2018-10-03T00:31:00.705Z,927.23
2018-10-03T00:31:13.260Z,927.24
2018-10-03T00:31:25.900Z,927.23
2018-10-03T00:31:38.942Z,927.25
2018-10-03T00:31:51.569Z,927.23
2018-10-03T00:32:04.507Z,927.24
2018-10-03T00:32:17.034Z,927.26
2018-10-03T00:32:29.558Z,927.23
2018-10-03T00:32:42.173Z,927.27
2018-10-03T00:32:55.029Z,927.24
2018-10-03T00:33:08.045Z,927.26
2018-10-03T00:33:20.594Z,927.25
2018-10-03T00:33:33.107Z,927.23
2018-10-03T00:33:45.637Z,927.25
2018-10-03T00:33:58.098Z,927.25
2018-10-03T00:34:10.669Z,927.26
2018-10-03T00:34:23.675Z,927.26
2018-10-03T00:34:36.229Z,927.27
2018-10-03T00:34:48.811Z,927.26
2018-10-03T00:35:01.802Z,927.26
2018-10-03T00:35:13.846Z,927.25
2018-10-03T00:35:26.894Z,927.25
2018-10-03T00:35:39.432Z,927.21
2018-10-03T00:35:52.410Z,927.28
2018-10-03T00:36:04.975Z,927.29
2018-10-03T00:36:17.933Z,927.25
2018-10-03T00:36:30.404Z,927.27
2018-10-03T00:36:43.451Z,927.31
2018-10-03T00:36:56.507Z,927.28
2018-10-03T00:37:09.602Z,927.29
2018-10-03T00:37:22.626Z,927.31
2018-10-03T00:37:35.660Z,927.3
2018-10-03T00:37:48.178Z,927.28
2018-10-03T00:38:00.667Z,927.29
2018-10-03T00:38:13.163Z,927.33
2018-10-03T00:38:26.110Z,927.3
2018-10-03T00:38:38.596Z,927.31
2018-10-03T00:38:51.080Z,927.31
2018-10-03T00:39:04.226Z,927.3
2018-10-03T00:39:17.244Z,927.32
2018-10-03T00:39:30.242Z,927.34
2018-10-03T00:39:42.285Z,927.36
2018-10-03T00:39:54.822Z,927.36
2018-10-03T00:40:06.491Z,927.36
2018-10-03T00:40:18.522Z,927.35
2018-10-03T00:40:30.161Z,927.36
2018-10-03T00:40:42.683Z,927.33
2018-10-03T00:40:54.294Z,927.4
2018-10-03T00:41:07.250Z,927.39
2018-10-03T00:41:20.245Z,927.39
2018-10-03T00:41:33.274Z,927.41
2018-10-03T00:41:44.880Z,927.42
2018-10-03T00:41:57.450Z,927.4
2018-10-03T00:42:09.518Z,927.4
2018-10-03T00:42:22.053Z,927.41
2018-10-03T00:42:34.596Z,927.4
2018-10-03T00:42:47.166Z,927.4
2018-10-03T00:43:00.222Z,927.38
2018-10-03T00:43:12.735Z,927.37
2018-10-03T00:43:25.230Z,927.4
2018-10-03T00:43:38.321Z,927.38
2018-10-03T00:43:50.872Z,927.39
2018-10-03T00:44:03.877Z,927.39
2018-10-03T00:44:16.462Z,927.37
2018-10-03T00:44:28.990Z,927.41
2018-10-03T00:44:41.943Z,927.41
2018-10-03T00:44:54.954Z,927.39
2018-10-03T00:45:07.917Z,927.4
2018-10-03T00:45:20.874Z,927.39
2018-10-03T00:45:32.851Z,927.4
2018-10-03T00:45:45.408Z,927.4
2018-10-03T00:45:58.433Z,927.35
2018-10-03T00:46:09.972Z,927.39
2018-10-03T00:46:22.932Z,927.36
2018-10-03T00:46:35.401Z,927.4
2018-10-03T00:46:48.448Z,927.38
2018-10-03T00:47:00.424Z,927.4
2018-10-03T00:47:12.987Z,927.4
2018-10-03T00:47:26.048Z,927.42
2018-10-03T00:47:39.134Z,927.38
2018-10-03T00:47:52.098Z,927.41
2018-10-03T00:48:04.656Z,927.37
2018-10-03T00:48:17.642Z,927.35
2018-10-03T00:48:30.175Z,927.38
2018-10-03T00:48:43.175Z,927.37
2018-10-03T00:48:56.144Z,927.32
2018-10-03T00:49:08.828Z,927.37
2018-10-03T00:49:21.909Z,927.34
2018-10-03T00:49:34.553Z,927.32
2018-10-03T00:49:47.633Z,927.34
2018-10-03T00:50:00.146Z,927.32
2018-10-03T00:50:13.156Z,927.33
2018-10-03T00:50:26.182Z,927.32
2018-10-03T00:50:39.202Z,927.28
2018-10-03T00:50:51.701Z,927.29
2018-10-03T00:51:03.725Z,927.3
2018-10-03T00:51:16.722Z,927.31
2018-10-03T00:51:29.243Z,927.31
2018-10-03T00:51:41.829Z,927.31
2018-10-03T00:51:53.915Z,927.28
2018-10-03T00:52:05.975Z,927.34
2018-10-03T00:52:19.038Z,927.31
2018-10-03T00:52:32.081Z,927.28
2018-10-03T00:52:45.069Z,927.31
2018-10-03T00:52:58.751Z,927.3
2018-10-03T00:53:11.749Z,927.3
2018-10-03T00:53:24.699Z,927.3
2018-10-03T00:53:37.655Z,927.33
2018-10-03T00:53:50.234Z,927.29
2018-10-03T00:54:03.287Z,927.33
2018-10-03T00:54:15.321Z,927.31
2018-10-03T00:54:28.319Z,927.3
2018-10-03T00:54:40.871Z,927.29
2018-10-03T00:54:53.882Z,927.31
2018-10-03T00:55:05.961Z,927.31
2018-10-03T00:55:18.494Z,927.32
2018-10-03T00:55:31.465Z,927.29
2018-10-03T00:55:44.527Z,927.28
2018-10-03T00:55:57.086Z,927.29
2018-10-03T00:56:10.088Z,927.31
2018-10-03T00:56:23.121Z,927.28
2018-10-03T00:56:35.685Z,927.28
2018-10-03T00:56:48.706Z,927.29
2018-10-03T00:57:01.710Z,927.29
2018-10-03T00:57:14.696Z,927.29
2018-10-03T00:57:27.252Z,927.3
2018-10-03T00:57:39.879Z,927.3
2018-10-03T00:57:52.899Z,927.25
2018-10-03T00:58:05.427Z,927.23
2018-10-03T00:58:18.041Z,927.25
2018-10-03T00:58:31.096Z,927.25
2018-10-03T00:58:43.717Z,927.27
2018-10-03T00:58:55.846Z,927.24
2018-10-03T00:59:08.375Z,927.24
2018-10-03T00:59:21.336Z,927.23
2018-10-03T00:59:34.327Z,927.26
2018-10-03T00:59:47.418Z,927.27
2018-10-03T01:00:00.397Z,927.28
2018-10-03T01:00:12.416Z,927.25
2018-10-03T01:00:25.005Z,927.24
2018-10-03T01:00:38.033Z,927.28
2018-10-03T01:00:50.565Z,927.28
2018-10-03T01:01:03.559Z,927.32
2018-10-03T01:01:16.068Z,927.29
2018-10-03T01:01:29.050Z,927.28
2018-10-03T01:01:42.159Z,927.32
2018-10-03T01:01:55.238Z,927.33
2018-10-03T01:02:08.248Z,927.32
2018-10-03T01:02:20.739Z,927.32
2018-10-03T01:02:33.186Z,927.34
2018-10-03T01:02:45.734Z,927.33
2018-10-03T01:02:58.733Z,927.33
2018-10-03T01:03:10.935Z,927.33
2018-10-03T01:03:23.897Z,927.36
2018-10-03T01:03:36.477Z,927.34
2018-10-03T01:03:49.043Z,927.35
2018-10-03T01:04:02.018Z,927.34
2018-10-03T01:04:14.579Z,927.36
2018-10-03T01:04:27.101Z,927.35
2018-10-03T01:04:40.101Z,927.35
2018-10-03T01:04:52.656Z,927.35
2018-10-03T01:05:05.627Z,927.37
2018-10-03T01:05:18.246Z,927.35
2018-10-03T01:05:31.195Z,927.38
2018-10-03T01:05:43.756Z,927.35
2018-10-03T01:05:56.285Z,927.38
2018-10-03T01:06:08.346Z,927.38
2018-10-03T01:06:21.346Z,927.38
2018-10-03T01:06:34.412Z,927.37
2018-10-03T01:06:47.371Z,927.36
2018-10-03T01:06:58.921Z,927.38
2018-10-03T01:07:11.437Z,927.41
2018-10-03T01:07:23.946Z,927.38
2018-10-03T01:07:35.597Z,927.4
2018-10-03T01:07:48.158Z,927.42
2018-10-03T01:08:00.690Z,927.35
2018-10-03T01:08:14.198Z,927.41
2018-10-03T01:08:27.196Z,927.39
2018-10-03T01:08:39.690Z,927.41
2018-10-03T01:08:52.696Z,927.38
2018-10-03T01:09:05.735Z,927.42
2018-10-03T01:09:17.861Z,927.41
2018-10-03T01:09:29.871Z,927.42
2018-10-03T01:09:42.856Z,927.45
2018-10-03T01:09:55.919Z,927.44
2018-10-03T01:10:08.942Z,927.45
2018-10-03T01:10:21.924Z,927.45
2018-10-03T01:10:34.873Z,927.47
2018-10-03T01:10:47.927Z,927.47
2018-10-03T01:11:00.430Z,927.44
2018-10-03T01:11:12.964Z,927.47
2018-10-03T01:11:26.025Z,927.47
2018-10-03T01:11:39.061Z,927.45
2018-10-03T01:11:52.078Z,927.43
2018-10-03T01:12:05.108Z,927.45
2018-10-03T01:12:17.204Z,927.45
2018-10-03T01:12:29.711Z,927.44
2018-10-03T01:12:42.693Z,927.44
2018-10-03T01:12:55.718Z,927.44
2018-10-03T01:13:08.758Z,927.43
2018-10-03T01:13:21.749Z,927.43
2018-10-03T01:13:34.794Z,927.42
2018-10-03T01:13:47.823Z,927.45
2018-10-03T01:14:00.389Z,927.44
2018-10-03T01:14:13.456Z,927.44
2018-10-03T01:14:26.032Z,927.44
2018-10-03T01:14:38.079Z,927.42
2018-10-03T01:14:51.104Z,927.41
2018-10-03T01:15:03.562Z,927.46
2018-10-03T01:15:15.642Z,927.42
2018-10-03T01:15:28.657Z,927.42
2018-10-03T01:15:41.699Z,927.41
2018-10-03T01:15:54.736Z,927.39
2018-10-03T01:16:07.301Z,927.4
2018-10-03T01:16:20.316Z,927.41
2018-10-03T01:16:32.850Z,927.42
2018-10-03T01:16:45.374Z,927.4
2018-10-03T01:16:58.454Z,927.41
2018-10-03T01:17:11.414Z,927.4
2018-10-03T01:17:23.955Z,927.37
2018-10-03T01:17:36.401Z,927.38
2018-10-03T01:17:49.415Z,927.39
2018-10-03T01:18:01.928Z,927.36
2018-10-03T01:18:14.915Z,927.37
2018-10-03T01:18:27.432Z,927.38
2018-10-03T01:18:40.438Z,927.39
2018-10-03T01:18:52.964Z,927.4
2018-10-03T01:19:05.562Z,927.33
2018-10-03T01:19:18.070Z,927.36
2018-10-03T01:19:31.077Z,927.34
2018-10-03T01:19:43.596Z,927.36
2018-10-03T01:19:56.108Z,927.32
2018-10-03T01:20:08.147Z,927.32
2018-10-03T01:20:21.214Z,927.3
2018-10-03T01:20:33.716Z,927.29
2018-10-03T01:20:46.354Z,927.28
2018-10-03T01:20:59.311Z,927.25
2018-10-03T01:21:12.280Z,927.25
2018-10-03T01:21:24.359Z,927.26
2018-10-03T01:21:36.891Z,927.25
2018-10-03T01:21:49.437Z,927.22
2018-10-03T01:22:01.911Z,927.29
2018-10-03T01:22:14.419Z,927.25
2018-10-03T01:22:27.401Z,927.24
2018-10-03T01:22:39.983Z,927.23
2018-10-03T01:22:52.514Z,927.23
2018-10-03T01:23:07.298Z,927.24
2018-10-03T01:23:20.334Z,927.27
2018-10-03T01:23:32.883Z,927.23
2018-10-03T01:23:45.849Z,927.23
2018-10-03T01:23:58.360Z,927.21
2018-10-03T01:24:11.449Z,927.2
2018-10-03T01:24:24.468Z,927.18
2018-10-03T01:24:37.440Z,927.19
2018-10-03T01:24:49.966Z,927.21
2018-10-03T01:25:02.484Z,927.21
2018-10-03T01:25:15.035Z,927.22
2018-10-03T01:25:28.080Z,927.21
2018-10-03T01:25:40.611Z,927.22
2018-10-03T01:25:53.574Z,927.2
2018-10-03T01:26:06.069Z,927.2
2018-10-03T01:26:19.029Z,927.23
2018-10-03T01:26:31.585Z,927.23
2018-10-03T01:26:43.705Z,927.22
2018-10-03T01:26:55.303Z,927.22
2018-10-03T01:27:07.409Z,927.22
2018-10-03T01:27:19.917Z,927.2
2018-10-03T01:27:32.502Z,927.24
2018-10-03T01:27:45.032Z,927.18
2018-10-03T01:27:58.016Z,927.23
2018-10-03T01:28:10.087Z,927.25
2018-10-03T01:28:22.729Z,927.21
2018-10-03T01:28:35.655Z,927.2
2018-10-03T01:28:48.641Z,927.26
2018-10-03T01:29:01.224Z,927.26
2018-10-03T01:29:14.218Z,927.23
2018-10-03T01:29:26.381Z,927.28
2018-10-03T01:29:38.931Z,927.27
2018-10-03T01:29:51.479Z,927.28
2018-10-03T01:30:03.569Z,927.27
2018-10-03T01:30:16.069Z,927.29
2018-10-03T01:30:29.153Z,927.27
2018-10-03T01:30:41.693Z,927.27
2018-10-03T01:30:54.272Z,927.3
2018-10-03T01:31:06.356Z,927.29
2018-10-03T01:31:19.332Z,927.28
2018-10-03T01:31:32.314Z,927.3
2018-10-03T01:31:45.300Z,927.28
2018-10-03T01:31:57.801Z,927.28
2018-10-03T01:32:10.858Z,927.3
2018-10-03T01:32:23.402Z,927.26
2018-10-03T01:32:36.338Z,927.34
2018-10-03T01:32:49.299Z,927.31
2018-10-03T01:33:01.825Z,927.33
2018-10-03T01:33:14.699Z,927.36
2018-10-03T01:33:27.256Z,927.33
2018-10-03T01:33:39.808Z,927.35
2018-10-03T01:33:52.294Z,927.36
2018-10-03T01:34:05.302Z,927.37
2018-10-03T01:34:18.250Z,927.37
2018-10-03T01:34:31.270Z,927.4
2018-10-03T01:34:44.242Z,927.39
2018-10-03T01:34:57.234Z,927.37
2018-10-03T01:35:10.271Z,927.35
2018-10-03T01:35:23.262Z,927.33
2018-10-03T01:35:36.291Z,927.34
2018-10-03T01:35:49.353Z,927.35
2018-10-03T01:36:02.302Z,927.39
2018-10-03T01:36:14.822Z,927.38
2018-10-03T01:36:27.350Z,927.44
2018-10-03T01:36:39.851Z,927.39
2018-10-03T01:36:52.904Z,927.39
2018-10-03T01:37:05.480Z,927.38
2018-10-03T01:37:18.011Z,927.38
2018-10-03T01:37:31.027Z,927.38
2018-10-03T01:37:44.089Z,927.37
2018-10-03T01:37:57.105Z,927.33
2018-10-03T01:38:10.150Z,927.38
2018-10-03T01:38:23.827Z,927.4
2018-10-03T01:38:37.317Z,927.37
2018-10-03T01:38:50.346Z,927.39
2018-10-03T01:39:03.343Z,927.39
2018-10-03T01:39:16.352Z,927.38
2018-10-03T01:39:28.450Z,927.4
2018-10-03T01:39:40.484Z,927.4
2018-10-03T01:39:53.471Z,927.37
2018-10-03T01:40:05.997Z,927.35
2018-10-03T01:40:19.021Z,927.37
2018-10-03T01:40:31.577Z,927.41
2018-10-03T01:40:44.644Z,927.4
2018-10-03T01:40:57.635Z,927.42
2018-10-03T01:41:10.175Z,927.39
2018-10-03T01:41:23.206Z,927.37
2018-10-03T01:41:36.141Z,927.34
2018-10-03T01:41:49.159Z,927.39
2018-10-03T01:42:01.700Z,927.39
2018-10-03T01:42:14.762Z,927.4
2018-10-03T01:42:27.812Z,927.41
2018-10-03T01:42:39.910Z,927.43
2018-10-03T01:42:52.902Z,927.4
2018-10-03T01:43:05.432Z,927.41
2018-10-03T01:43:18.438Z,927.41
2018-10-03T01:43:30.491Z,927.42
2018-10-03T01:43:43.504Z,927.41
2018-10-03T01:43:56.500Z,927.42
2018-10-03T01:44:09.039Z,927.39
2018-10-03T01:44:21.042Z,927.36
2018-10-03T01:44:34.023Z,927.41
2018-10-03T01:44:47.063Z,927.42
2018-10-03T01:45:00.080Z,927.39
2018-10-03T01:45:13.115Z,927.38
2018-10-03T01:45:25.225Z,927.39
2018-10-03T01:45:38.268Z,927.38
2018-10-03T01:45:51.288Z,927.38
2018-10-03T01:46:04.355Z,927.35
2018-10-03T01:46:17.413Z,927.33
2018-10-03T01:46:29.952Z,927.36
2018-10-03T01:46:42.948Z,927.36
2018-10-03T01:46:55.405Z,927.32
2018-10-03T01:47:08.404Z,927.33
2018-10-03T01:47:21.362Z,927.36
2018-10-03T01:47:33.904Z,927.33
2018-10-03T01:47:46.411Z,927.33
2018-10-03T01:47:59.418Z,927.36
2018-10-03T01:48:11.489Z,927.36
2018-10-03T01:48:24.462Z,927.32
2018-10-03T01:48:37.459Z,927.32
2018-10-03T01:48:50.023Z,927.28
2018-10-03T01:49:02.070Z,927.29
2018-10-03T01:49:14.128Z,927.29
2018-10-03T01:49:26.742Z,927.26
2018-10-03T01:49:39.307Z,927.29
2018-10-03T01:49:51.855Z,927.28
2018-10-03T01:50:04.862Z,927.26
2018-10-03T01:50:17.466Z,927.24
2018-10-03T01:50:29.064Z,927.23
2018-10-03T01:50:42.146Z,927.27
2018-10-03T01:50:55.186Z,927.26
2018-10-03T01:51:07.669Z,927.27
2018-10-03T01:51:20.246Z,927.23
2018-10-03T01:51:33.284Z,927.25
2018-10-03T01:51:46.253Z,927.21
2018-10-03T01:51:59.302Z,927.2
2018-10-03T01:52:11.792Z,927.23
2018-10-03T01:52:24.280Z,927.2
2018-10-03T01:52:36.425Z,927.21
2018-10-03T01:52:48.969Z,927.2
2018-10-03T01:53:01.456Z,927.2
2018-10-03T01:53:13.966Z,927.19
2018-10-03T01:53:28.546Z,927.21
2018-10-03T01:53:41.473Z,927.2
2018-10-03T01:53:54.434Z,927.18
2018-10-03T01:54:07.477Z,927.18
2018-10-03T01:54:20.019Z,927.16
2018-10-03T01:54:32.516Z,927.16
2018-10-03T01:54:45.549Z,927.18
2018-10-03T01:54:57.600Z,927.14
2018-10-03T01:55:10.103Z,927.17
2018-10-03T01:55:22.683Z,927.17
2018-10-03T01:55:35.688Z,927.15
2018-10-03T01:55:48.727Z,927.15
2018-10-03T01:56:01.719Z,927.14
2018-10-03T01:56:14.640Z,927.13
2018-10-03T01:56:27.617Z,927.14
2018-10-03T01:56:40.624Z,927.11
2018-10-03T01:56:53.633Z,927.11
2018-10-03T01:57:05.719Z,927.1
2018-10-03T01:57:18.747Z,927.1
2018-10-03T01:57:31.786Z,927.07
2018-10-03T01:57:44.790Z,927.09
2018-10-03T01:57:57.812Z,927.11
2018-10-03T01:58:10.341Z,927.07
2018-10-03T01:58:23.319Z,927.1
2018-10-03T01:58:36.285Z,927.1
2018-10-03T01:58:49.291Z,927.1
2018-10-03T01:59:01.785Z,927.08
2018-10-03T01:59:13.902Z,927.09
2018-10-03T01:59:26.893Z,927.11
2018-10-03T01:59:38.968Z,927.07
2018-10-03T01:59:50.601Z,927.07
2018-10-03T02:00:03.687Z,927.08
2018-10-03T02:00:16.701Z,927.1
2018-10-03T02:00:29.197Z,927.08
2018-10-03T02:00:42.287Z,927.1
2018-10-03T02:00:54.842Z,927.09
2018-10-03T02:01:07.408Z,927.08
2018-10-03T02:01:20.412Z,927.1
2018-10-03T02:01:32.933Z,927.1
2018-10-03T02:01:45.888Z,927.08
2018-10-03T02:01:58.913Z,927.08
2018-10-03T02:02:11.402Z,927.09
2018-10-03T02:02:23.982Z,927.11
2018-10-03T02:02:36.609Z,927.06
2018-10-03T02:02:49.123Z,927.09
2018-10-03T02:03:02.128Z,927.08
2018-10-03T02:03:14.166Z,927.07
2018-10-03T02:03:27.467Z,927.06
2018-10-03T02:03:40.001Z,927.07
2018-10-03T02:03:52.534Z,927.09
2018-10-03T02:04:05.539Z,927.09
2018-10-03T02:04:18.091Z,927.09
2018-10-03T02:04:30.621Z,927.09
2018-10-03T02:04:43.648Z,927.11
2018-10-03T02:04:56.648Z,927.1
2018-10-03T02:05:09.148Z,927.1
2018-10-03T02:05:21.296Z,927.11
2018-10-03T02:05:34.281Z,927.07
2018-10-03T02:05:47.272Z,927.09
2018-10-03T02:05:59.881Z,927.11
2018-10-03T02:06:12.967Z,927.08
2018-10-03T02:06:25.952Z,927.11
2018-10-03T02:06:38.921Z,927.1
2018-10-03T02:06:51.987Z,927.1
2018-10-03T02:07:04.450Z,927.11
2018-10-03T02:07:16.978Z,927.11
2018-10-03T02:07:29.036Z,927.11
2018-10-03T02:07:41.550Z,927.12
2018-10-03T02:07:54.079Z,927.13
2018-10-03T02:08:07.168Z,927.1
2018-10-03T02:08:20.162Z,927.08
2018-10-03T02:08:33.218Z,927.13
2018-10-03T02:08:46.186Z,927.12
2018-10-03T02:08:58.841Z,927.12
2018-10-03T02:09:11.798Z,927.12
2018-10-03T02:09:24.825Z,927.13
2018-10-03T02:09:37.853Z,927.11
2018-10-03T02:09:50.828Z,927.09
2018-10-03T02:10:02.917Z,927.1
2018-10-03T02:10:15.985Z,927.1
2018-10-03T02:10:28.954Z,927.12
2018-10-03T02:10:42.038Z,927.12
2018-10-03T02:10:55.073Z,927.15
2018-10-03T02:11:08.158Z,927.1
2018-10-03T02:11:21.182Z,927.12
2018-10-03T02:11:33.681Z,927.12
2018-10-03T02:11:46.268Z,927.12
2018-10-03T02:11:59.234Z,927.08
2018-10-03T02:12:11.738Z,927.09
2018-10-03T02:12:24.784Z,927.11
2018-10-03T02:12:37.818Z,927.12
2018-10-03T02:12:50.819Z,927.07
2018-10-03T02:13:02.831Z,927.09
2018-10-03T02:13:15.454Z,927.09
2018-10-03T02:13:27.972Z,927.09
2018-10-03T02:13:40.951Z,927.07
2018-10-03T02:13:53.585Z,927.04
2018-10-03T02:14:06.085Z,927.06
2018-10-03T02:14:18.136Z,927.06
2018-10-03T02:14:31.081Z,927.03
2018-10-03T02:14:43.915Z,927.08
2018-10-03T02:14:57.212Z,927.03
2018-10-03T02:15:10.235Z,927.03
2018-10-03T02:15:22.827Z,927.04
2018-10-03T02:15:35.384Z,927.04
2018-10-03T02:15:48.363Z,927.06
2018-10-03T02:16:01.400Z,927.02
2018-10-03T02:16:14.452Z,927.01
2018-10-03T02:16:26.564Z,927.04
2018-10-03T02:16:39.074Z,927.01
2018-10-03T02:16:51.202Z,927.02
2018-10-03T02:17:03.893Z,927
2018-10-03T02:17:16.525Z,927.03
2018-10-03T02:17:29.530Z,927.07
2018-10-03T02:17:42.102Z,927.06
2018-10-03T02:17:55.116Z,927
2018-10-03T02:18:07.225Z,927
2018-10-03T02:18:19.273Z,927
2018-10-03T02:18:32.320Z,927.03
2018-10-03T02:18:44.844Z,926.95
2018-10-03T02:18:57.341Z,927.01
2018-10-03T02:19:09.401Z,926.97
2018-10-03T02:19:22.415Z,926.97
2018-10-03T02:19:35.428Z,926.99
2018-10-03T02:19:47.959Z,926.97
2018-10-03T02:20:00.054Z,926.96
2018-10-03T02:20:13.052Z,927
2018-10-03T02:20:26.103Z,926.99
2018-10-03T02:20:39.157Z,926.95
2018-10-03T02:20:51.199Z,926.99
2018-10-03T02:21:04.225Z,926.95
2018-10-03T02:21:17.271Z,926.96
2018-10-03T02:21:29.821Z,926.98
2018-10-03T02:21:42.783Z,926.97
2018-10-03T02:21:55.824Z,926.95
2018-10-03T02:22:07.975Z,926.94
2018-10-03T02:22:20.965Z,926.93
2018-10-03T02:22:33.024Z,926.91
2018-10-03T02:22:46.113Z,926.93
2018-10-03T02:22:59.105Z,926.91
2018-10-03T02:23:11.694Z,926.92
2018-10-03T02:23:24.770Z,926.94
2018-10-03T02:23:38.603Z,926.88
2018-10-03T02:23:51.621Z,926.92
2018-10-03T02:24:04.117Z,926.92
2018-10-03T02:24:16.624Z,926.88
2018-10-03T02:24:29.182Z,926.9
2018-10-03T02:24:42.267Z,926.88
2018-10-03T02:24:55.422Z,926.87
2018-10-03T02:25:07.462Z,926.85
2018-10-03T02:25:19.993Z,926.89
2018-10-03T02:25:32.960Z,926.87
2018-10-03T02:25:45.504Z,926.86
2018-10-03T02:25:58.437Z,926.83
2018-10-03T02:26:11.397Z,926.84
2018-10-03T02:26:24.405Z,926.86
2018-10-03T02:26:37.390Z,926.83
2018-10-03T02:26:50.432Z,926.82
2018-10-03T02:27:03.500Z,926.88
2018-10-03T02:27:16.069Z,926.83
2018-10-03T02:27:28.569Z,926.82
2018-10-03T02:27:41.593Z,926.78
2018-10-03T02:27:53.644Z,926.79
2018-10-03T02:28:06.657Z,926.79
2018-10-03T02:28:19.627Z,926.84
2018-10-03T02:28:32.662Z,926.83
2018-10-03T02:28:45.233Z,926.78
2018-10-03T02:28:57.289Z,926.79
2018-10-03T02:29:10.315Z,926.76
2018-10-03T02:29:23.338Z,926.78
2018-10-03T02:29:36.387Z,926.77
2018-10-03T02:29:49.000Z,926.8
2018-10-03T02:30:01.962Z,926.79
2018-10-03T02:30:14.973Z,926.73
2018-10-03T02:30:27.576Z,926.76
2018-10-03T02:30:40.709Z,926.8
2018-10-03T02:30:53.699Z,926.76
2018-10-03T02:31:06.738Z,926.82
2018-10-03T02:31:19.720Z,926.76
2018-10-03T02:31:32.699Z,926.77
2018-10-03T02:31:45.253Z,926.76
2018-10-03T02:31:57.825Z,926.76
2018-10-03T02:32:10.401Z,926.74
2018-10-03T02:32:23.405Z,926.72
2018-10-03T02:32:35.954Z,926.72
2018-10-03T02:32:48.968Z,926.72
2018-10-03T02:33:01.978Z,926.71
2018-10-03T02:33:14.603Z,926.71
2018-10-03T02:33:27.113Z,926.7
2018-10-03T02:33:40.097Z,926.71
2018-10-03T02:33:52.709Z,926.73
2018-10-03T02:34:05.241Z,926.72
2018-10-03T02:34:18.252Z,926.73
2018-10-03T02:34:30.776Z,926.71
2018-10-03T02:34:43.348Z,926.7
2018-10-03T02:34:56.430Z,926.73
2018-10-03T02:35:08.978Z,926.71
2018-10-03T02:35:21.925Z,926.72
2018-10-03T02:35:34.904Z,926.69
2018-10-03T02:35:47.511Z,926.69
2018-10-03T02:36:00.551Z,926.68
2018-10-03T02:36:13.544Z,926.69
2018-10-03T02:36:26.507Z,926.64
2018-10-03T02:36:39.055Z,926.68
2018-10-03T02:36:51.083Z,926.68
2018-10-03T02:37:03.275Z,926.63
2018-10-03T02:37:14.902Z,926.68
2018-10-03T02:37:27.420Z,926.66
2018-10-03T02:37:40.010Z,926.61
2018-10-03T02:37:52.536Z,926.66
2018-10-03T02:38:05.105Z,926.66
2018-10-03T02:38:18.099Z,926.65
2018-10-03T02:38:31.146Z,926.67
2018-10-03T02:38:44.654Z,926.62
2018-10-03T02:38:57.668Z,926.65
2018-10-03T02:39:10.713Z,926.62